createdAt,value
2019-01-13T00:01:19.348Z,3.00
2019-01-13T00:03:45.832Z,3.00
2019-01-13T00:06:12.535Z,3.00
2019-01-13T00:08:39.264Z,3.00
2019-01-13T00:11:05.715Z,3.00
2019-01-13T00:13:32.192Z,2.90
2019-01-13T00:15:58.644Z,2.90
2019-01-13T00:18:25.124Z,2.90
2019-01-13T00:20:51.819Z,2.90
2019-01-13T00:23:18.305Z,2.80
2019-01-13T00:25:44.756Z,2.80
2019-01-13T00:28:11.218Z,2.80
2019-01-13T00:30:37.944Z,2.70
2019-01-13T00:33:04.672Z,2.70
2019-01-13T00:35:32.058Z,2.70
2019-01-13T00:37:58.807Z,2.70
2019-01-13T00:40:25.291Z,2.70
2019-01-13T00:42:51.988Z,2.70
2019-01-13T00:45:18.723Z,2.80
2019-01-13T00:47:45.434Z,2.80
2019-01-13T00:50:12.181Z,2.80
2019-01-13T00:52:38.672Z,2.80
2019-01-13T00:55:05.322Z,2.80
2019-01-13T00:57:32.021Z,2.80
2019-01-13T00:59:58.756Z,2.90
2019-01-13T01:02:25.456Z,2.90
2019-01-13T01:04:51.935Z,2.90
2019-01-13T01:07:18.635Z,2.90
2019-01-13T01:09:45.396Z,3.00
2019-01-13T01:12:11.857Z,2.90
2019-01-13T01:14:38.568Z,2.90
2019-01-13T01:17:05.704Z,2.90
2019-01-13T01:19:32.185Z,2.90
2019-01-13T01:21:58.897Z,3.00
2019-01-13T01:24:25.870Z,2.90
2019-01-13T01:26:52.428Z,2.90
2019-01-13T01:29:19.160Z,2.90
2019-01-13T01:31:45.912Z,2.90
2019-01-13T01:34:12.395Z,2.90
2019-01-13T01:36:38.853Z,2.90
2019-01-13T01:39:06.329Z,2.90
2019-01-13T01:41:32.780Z,2.90
2019-01-13T01:43:59.512Z,2.90
2019-01-13T01:46:25.970Z,2.90
2019-01-13T01:48:52.456Z,2.80
2019-01-13T01:51:19.188Z,2.70
2019-01-13T01:53:45.892Z,2.80
2019-01-13T01:56:12.377Z,2.80
2019-01-13T01:58:39.081Z,2.80
2019-01-13T02:01:05.574Z,2.80
2019-01-13T02:03:32.280Z,2.80
2019-01-13T02:05:59.147Z,2.70
2019-01-13T02:08:26.125Z,2.70
2019-01-13T02:10:52.688Z,2.70
2019-01-13T02:13:19.424Z,2.60
2019-01-13T02:15:45.912Z,2.60
2019-01-13T02:18:12.620Z,2.50
2019-01-13T02:20:39.107Z,2.50
2019-01-13T02:23:05.563Z,2.40
2019-01-13T02:25:32.320Z,2.50
2019-01-13T02:27:58.777Z,2.50
2019-01-13T02:30:25.781Z,2.50
2019-01-13T02:32:52.568Z,2.50
2019-01-13T02:35:19.065Z,2.50
2019-01-13T02:37:45.855Z,2.50
2019-01-13T02:40:13.361Z,2.60
2019-01-13T02:42:40.061Z,2.60
2019-01-13T02:45:08.489Z,2.50
2019-01-13T02:47:34.940Z,2.50
2019-01-13T02:50:01.684Z,2.60
2019-01-13T02:52:28.396Z,2.60
2019-01-13T02:54:55.134Z,2.70
2019-01-13T02:57:21.839Z,2.70
2019-01-13T02:59:48.315Z,2.70
2019-01-13T03:02:14.771Z,2.80
2019-01-13T03:04:41.506Z,2.80
2019-01-13T03:07:07.956Z,2.80
2019-01-13T03:09:34.679Z,2.80
2019-01-13T03:12:01.140Z,2.80
2019-01-13T03:14:27.838Z,2.80
2019-01-13T03:16:54.571Z,2.80
2019-01-13T03:19:21.277Z,2.80
2019-01-13T03:21:47.757Z,2.80
2019-01-13T03:24:14.736Z,2.80
2019-01-13T03:26:41.468Z,2.90
2019-01-13T03:29:07.917Z,2.90
2019-01-13T03:31:34.651Z,2.90
2019-01-13T03:34:01.572Z,2.90
2019-01-13T03:36:28.061Z,2.90
2019-01-13T03:38:54.520Z,2.90
2019-01-13T03:41:21.006Z,2.90
2019-01-13T03:43:47.459Z,2.90
2019-01-13T03:46:14.205Z,2.80
2019-01-13T03:48:40.904Z,2.80
2019-01-13T03:51:08.058Z,2.90
2019-01-13T03:53:34.752Z,2.90
2019-01-13T03:56:01.484Z,2.90
2019-01-13T03:58:28.164Z,2.90
2019-01-13T04:00:54.899Z,3.00
2019-01-13T04:03:21.373Z,3.00
2019-01-13T04:05:48.183Z,3.10
2019-01-13T04:08:14.865Z,3.10
2019-01-13T04:10:41.476Z,3.10
2019-01-13T04:13:07.948Z,3.10
2019-01-13T04:15:36.064Z,3.10
2019-01-13T04:18:02.520Z,3.10
2019-01-13T04:20:29.029Z,3.20
2019-01-13T04:22:55.481Z,3.20
2019-01-13T04:25:22.239Z,3.20
2019-01-13T04:27:48.792Z,3.30
2019-01-13T04:30:15.483Z,3.30
2019-01-13T04:32:41.964Z,3.30
2019-01-13T04:35:08.669Z,3.30
2019-01-13T04:37:35.393Z,3.30
2019-01-13T04:40:01.958Z,3.30
2019-01-13T04:42:28.436Z,3.30
2019-01-13T04:44:55.135Z,3.30
2019-01-13T04:47:21.869Z,3.30
2019-01-13T04:49:48.325Z,3.30
2019-01-13T04:52:15.051Z,3.30
2019-01-13T04:54:41.861Z,3.30
2019-01-13T04:57:08.373Z,3.40
2019-01-13T04:59:34.827Z,3.40
2019-01-13T05:02:01.309Z,3.40
2019-01-13T05:04:28.012Z,3.30
2019-01-13T05:06:54.797Z,3.30
2019-01-13T05:09:21.251Z,3.30
2019-01-13T05:11:47.727Z,3.30
2019-01-13T05:14:14.184Z,3.30
2019-01-13T05:16:40.663Z,3.30
2019-01-13T05:19:07.363Z,3.30
2019-01-13T05:21:34.696Z,3.30
2019-01-13T05:24:01.170Z,3.30
2019-01-13T05:26:27.971Z,3.40
2019-01-13T05:28:54.656Z,3.40
2019-01-13T05:31:21.140Z,3.40
2019-01-13T05:33:48.128Z,3.40
2019-01-13T05:36:14.863Z,3.40
2019-01-13T05:38:41.629Z,3.40
2019-01-13T05:41:08.125Z,3.40
2019-01-13T05:43:34.605Z,3.40
2019-01-13T05:46:01.295Z,3.40
2019-01-13T05:48:27.783Z,3.40
2019-01-13T05:50:54.488Z,3.40
2019-01-13T05:53:20.997Z,3.40
2019-01-13T05:55:48.028Z,3.40
2019-01-13T05:58:14.513Z,3.40
2019-01-13T06:00:42.599Z,3.40
2019-01-13T06:03:09.083Z,3.40
2019-01-13T06:05:35.779Z,3.40
2019-01-13T06:08:02.260Z,3.40
2019-01-13T06:10:28.959Z,3.40
2019-01-13T06:12:55.688Z,3.40
2019-01-13T06:15:22.579Z,3.40
2019-01-13T06:17:49.060Z,3.40
2019-01-13T06:20:16.331Z,3.40
2019-01-13T06:22:42.812Z,3.40
2019-01-13T06:25:09.516Z,3.40
2019-01-13T06:27:35.996Z,3.40
2019-01-13T06:30:03.124Z,3.50
2019-01-13T06:32:29.855Z,3.50
2019-01-13T06:34:56.557Z,3.50
2019-01-13T06:37:23.283Z,3.40
2019-01-13T06:39:49.983Z,3.40
2019-01-13T06:42:16.472Z,3.40
2019-01-13T06:44:43.019Z,3.40
2019-01-13T06:47:09.513Z,3.40
2019-01-13T06:49:36.054Z,3.50
2019-01-13T06:52:02.824Z,3.50
2019-01-13T06:54:29.760Z,3.50
2019-01-13T06:56:56.245Z,3.50
2019-01-13T06:59:23.174Z,3.60
2019-01-13T07:01:49.900Z,3.60
2019-01-13T07:04:16.631Z,3.50
2019-01-13T07:06:43.336Z,3.50
2019-01-13T07:09:10.074Z,3.60
2019-01-13T07:11:36.523Z,3.60
2019-01-13T07:14:03.347Z,3.60
2019-01-13T07:16:30.280Z,3.60
2019-01-13T07:18:56.760Z,3.60
2019-01-13T07:21:23.208Z,3.60
2019-01-13T07:23:49.985Z,3.60
2019-01-13T07:26:16.495Z,3.60
2019-01-13T07:28:43.908Z,3.60
2019-01-13T07:31:10.617Z,3.60
2019-01-13T07:33:37.546Z,3.70
2019-01-13T07:36:04.240Z,3.70
2019-01-13T07:38:30.734Z,3.70
2019-01-13T07:40:57.390Z,3.70
2019-01-13T07:43:24.100Z,3.70
2019-01-13T07:45:50.800Z,3.70
2019-01-13T07:48:17.534Z,3.70
2019-01-13T07:50:44.464Z,3.70
2019-01-13T07:53:10.979Z,3.80
2019-01-13T07:55:37.431Z,3.80
2019-01-13T07:58:04.265Z,3.80
2019-01-13T08:00:31.243Z,3.80
2019-01-13T08:02:57.971Z,3.90
2019-01-13T08:05:24.671Z,3.80
2019-01-13T08:07:51.158Z,3.80
2019-01-13T08:10:17.616Z,3.80
2019-01-13T08:12:44.106Z,3.70
2019-01-13T08:15:11.644Z,3.70
2019-01-13T08:17:38.126Z,3.70
2019-01-13T08:20:05.440Z,3.70
2019-01-13T08:22:32.176Z,3.70
2019-01-13T08:24:58.880Z,3.70
2019-01-13T08:27:25.365Z,3.70
2019-01-13T08:29:52.068Z,3.70
2019-01-13T08:32:24.819Z,3.70
2019-01-13T08:34:47.216Z,3.70
2019-01-13T08:37:13.921Z,3.70
2019-01-13T08:39:40.653Z,3.70
2019-01-13T08:42:07.352Z,3.70
2019-01-13T08:44:34.155Z,3.70
2019-01-13T08:47:00.612Z,3.70
2019-01-13T08:49:27.348Z,3.70
2019-01-13T08:51:53.828Z,3.70
2019-01-13T08:54:20.316Z,3.60
2019-01-13T08:56:48.116Z,3.70
2019-01-13T08:59:14.909Z,3.70
2019-01-13T09:01:41.360Z,3.70
2019-01-13T09:04:09.246Z,3.70
2019-01-13T09:06:35.948Z,3.70
2019-01-13T09:09:03.625Z,3.70
2019-01-13T09:11:30.076Z,3.70
2019-01-13T09:13:56.559Z,3.70
2019-01-13T09:16:23.268Z,3.70
2019-01-13T09:18:49.748Z,3.70
2019-01-13T09:21:17.535Z,3.70
2019-01-13T09:23:44.447Z,3.80
2019-01-13T09:26:11.152Z,3.80
2019-01-13T09:28:37.883Z,3.90
2019-01-13T09:31:04.376Z,3.90
2019-01-13T09:33:31.103Z,3.90
2019-01-13T09:35:57.564Z,3.90
2019-01-13T09:38:24.045Z,3.90
2019-01-13T09:40:50.748Z,3.90
2019-01-13T09:43:17.232Z,3.90
2019-01-13T09:45:44.888Z,3.90
2019-01-13T09:48:11.524Z,4.00
2019-01-13T09:50:38.272Z,3.90
2019-01-13T09:53:04.979Z,4.00
2019-01-13T09:55:31.705Z,4.00
2019-01-13T09:57:58.160Z,3.90
2019-01-13T10:00:28.613Z,4.00
2019-01-13T10:02:55.533Z,4.00
2019-01-13T10:05:22.819Z,4.00
2019-01-13T10:07:49.532Z,4.00
2019-01-13T10:10:16.262Z,4.00
2019-01-13T10:12:42.968Z,4.00
2019-01-13T10:15:10.672Z,4.00
2019-01-13T10:17:37.124Z,4.00
2019-01-13T10:20:03.832Z,4.00
2019-01-13T10:22:30.291Z,4.10
2019-01-13T10:24:56.777Z,4.10
2019-01-13T10:27:23.472Z,4.10
2019-01-13T10:29:49.980Z,4.10
2019-01-13T10:32:16.684Z,4.10
2019-01-13T10:34:43.160Z,4.10
2019-01-13T10:37:09.613Z,4.10
2019-01-13T10:39:36.576Z,4.10
2019-01-13T10:42:03.027Z,4.20
2019-01-13T10:44:29.513Z,4.20
2019-01-13T10:46:56.024Z,4.20
2019-01-13T10:49:22.756Z,4.30
2019-01-13T10:51:49.460Z,4.30
2019-01-13T10:54:16.187Z,4.30
2019-01-13T10:56:42.892Z,4.30
2019-01-13T10:59:09.620Z,4.40
2019-01-13T11:01:36.327Z,4.40
2019-01-13T11:04:03.072Z,4.40
2019-01-13T11:06:29.523Z,4.40
2019-01-13T11:08:56.007Z,4.50
2019-01-13T11:11:22.459Z,4.50
2019-01-13T11:13:48.951Z,4.50
2019-01-13T11:16:15.747Z,4.50
2019-01-13T11:18:42.232Z,4.60
2019-01-13T11:21:08.688Z,4.60
2019-01-13T11:23:35.381Z,4.60
2019-01-13T11:26:01.892Z,4.70
2019-01-13T11:28:28.344Z,4.70
2019-01-13T11:30:55.075Z,4.70
2019-01-13T11:33:21.776Z,4.70
2019-01-13T11:35:48.268Z,4.70
2019-01-13T11:38:14.974Z,4.70
2019-01-13T11:40:41.452Z,4.80
2019-01-13T11:43:07.913Z,4.80
2019-01-13T11:45:34.402Z,4.80
2019-01-13T11:48:00.856Z,4.80
2019-01-13T11:50:27.588Z,4.80
2019-01-13T11:52:54.292Z,4.80
2019-01-13T11:55:21.224Z,4.80
2019-01-13T11:57:47.976Z,4.80
2019-01-13T12:00:33.841Z,4.90
2019-01-13T12:03:06.517Z,4.90
2019-01-13T12:05:28.931Z,4.90
2019-01-13T12:07:55.383Z,4.90
2019-01-13T12:10:22.136Z,4.90
2019-01-13T12:12:48.852Z,4.90
2019-01-13T12:15:15.663Z,5.00
2019-01-13T12:17:42.467Z,5.00
2019-01-13T12:20:10.359Z,5.00
2019-01-13T12:22:36.817Z,5.00
2019-01-13T12:25:03.573Z,5.00
2019-01-13T12:27:30.067Z,5.10
2019-01-13T12:29:56.800Z,5.10
2019-01-13T12:32:23.509Z,5.10
2019-01-13T12:34:50.241Z,5.20
2019-01-13T12:37:17.692Z,5.20
2019-01-13T12:39:44.175Z,5.20
2019-01-13T12:42:10.876Z,5.20
2019-01-13T12:44:37.354Z,5.30
2019-01-13T12:47:04.060Z,5.30
2019-01-13T12:49:30.532Z,5.30
2019-01-13T12:51:57.231Z,5.40
2019-01-13T12:54:23.716Z,5.40
2019-01-13T12:56:50.647Z,5.40
2019-01-13T12:59:17.353Z,5.40
2019-01-13T13:01:43.839Z,5.50
2019-01-13T13:04:10.859Z,5.50
2019-01-13T13:06:37.581Z,5.50
2019-01-13T13:09:07.481Z,5.60
2019-01-13T13:11:34.223Z,5.60
2019-01-13T13:14:00.956Z,5.60
2019-01-13T13:16:27.688Z,5.70
2019-01-13T13:18:54.139Z,5.70
2019-01-13T13:21:20.628Z,5.80
2019-01-13T13:23:47.332Z,5.80
2019-01-13T13:26:13.816Z,5.90
2019-01-13T13:28:40.520Z,5.90
2019-01-13T13:31:07.480Z,6.00
2019-01-13T13:33:38.770Z,6.00
2019-01-13T13:36:04.704Z,6.10
2019-01-13T13:38:31.156Z,6.10
2019-01-13T13:40:57.884Z,6.10
2019-01-13T13:43:30.295Z,6.10
2019-01-13T13:45:57.023Z,6.20
2019-01-13T13:48:23.726Z,6.20
2019-01-13T13:50:50.203Z,6.20
2019-01-13T13:53:16.910Z,6.20
2019-01-13T13:55:43.636Z,6.30
2019-01-13T13:58:10.330Z,6.30
2019-01-13T14:00:37.143Z,6.30
2019-01-13T14:03:03.596Z,6.30
2019-01-13T14:05:30.328Z,6.30
2019-01-13T14:07:56.776Z,6.40
2019-01-13T14:10:24.551Z,6.40
2019-01-13T14:12:51.268Z,6.40
2019-01-13T14:15:18.010Z,6.50
2019-01-13T14:17:44.707Z,6.50
2019-01-13T14:20:12.164Z,6.50
2019-01-13T14:22:38.619Z,6.50
2019-01-13T14:25:05.356Z,6.60
2019-01-13T14:27:32.318Z,6.60
2019-01-13T14:29:58.773Z,6.60
2019-01-13T14:32:25.255Z,6.60
2019-01-13T14:34:51.712Z,6.60
2019-01-13T14:37:18.199Z,6.60
2019-01-13T14:39:48.680Z,6.60
2019-01-13T14:42:13.275Z,6.60
2019-01-13T14:44:39.770Z,6.60
2019-01-13T14:47:06.559Z,6.60
2019-01-13T14:49:33.264Z,6.60
2019-01-13T14:52:00.225Z,6.70
2019-01-13T14:54:26.688Z,6.70
2019-01-13T14:56:53.165Z,6.70
2019-01-13T14:59:19.626Z,6.70
2019-01-13T15:01:46.108Z,6.60
2019-01-13T15:04:12.561Z,6.60
2019-01-13T15:06:39.040Z,6.60
2019-01-13T15:09:07.988Z,6.60
2019-01-13T15:11:34.820Z,6.60
2019-01-13T15:14:01.336Z,6.60
2019-01-13T15:16:28.046Z,6.60
2019-01-13T15:18:54.780Z,6.60
2019-01-13T15:21:21.236Z,6.50
2019-01-13T15:23:47.743Z,6.50
2019-01-13T15:26:14.423Z,6.50
2019-01-13T15:28:41.229Z,6.40
2019-01-13T15:31:08.167Z,6.50
2019-01-13T15:33:34.644Z,6.50
2019-01-13T15:36:01.349Z,6.50
2019-01-13T15:38:27.932Z,6.50
2019-01-13T15:40:54.391Z,6.50
2019-01-13T15:43:20.844Z,6.50
2019-01-13T15:45:47.328Z,6.50
2019-01-13T15:48:13.778Z,6.50
2019-01-13T15:50:40.260Z,6.60
2019-01-13T15:53:06.739Z,6.70
2019-01-13T15:55:33.332Z,6.70
2019-01-13T15:58:00.036Z,6.70
2019-01-13T16:00:27.503Z,6.70
2019-01-13T16:02:53.957Z,6.70
2019-01-13T16:05:20.688Z,6.70
2019-01-13T16:07:47.145Z,6.70
2019-01-13T16:10:14.511Z,6.60
2019-01-13T16:12:40.976Z,6.60
2019-01-13T16:15:08.093Z,6.60
2019-01-13T16:17:34.546Z,6.60
2019-01-13T16:20:01.267Z,6.60
2019-01-13T16:22:27.723Z,6.60
2019-01-13T16:24:54.460Z,6.60
2019-01-13T16:27:20.958Z,6.60
2019-01-13T16:29:47.963Z,6.50
2019-01-13T16:32:14.659Z,6.60
2019-01-13T16:34:41.140Z,6.60
2019-01-13T16:37:07.839Z,6.60
2019-01-13T16:39:34.572Z,6.60
2019-01-13T16:42:01.268Z,6.60
2019-01-13T16:44:28.237Z,6.60
2019-01-13T16:46:54.684Z,6.60
2019-01-13T16:49:21.176Z,6.60
2019-01-13T16:51:47.624Z,6.70
2019-01-13T16:54:14.360Z,6.60
2019-01-13T16:56:41.292Z,6.70
2019-01-13T16:59:07.987Z,6.70
2019-01-13T17:01:34.723Z,6.70
2019-01-13T17:04:01.177Z,6.80
2019-01-13T17:06:27.664Z,6.70
2019-01-13T17:08:54.124Z,6.70
2019-01-13T17:11:20.604Z,6.70
2019-01-13T17:13:47.300Z,6.70
2019-01-13T17:16:14.033Z,6.70
2019-01-13T17:18:40.485Z,6.70
2019-01-13T17:21:07.224Z,6.70
2019-01-13T17:23:33.923Z,6.60
2019-01-13T17:26:00.631Z,6.60
2019-01-13T17:28:27.540Z,6.60
2019-01-13T17:30:54.275Z,6.70
2019-01-13T17:33:20.829Z,6.70
2019-01-13T17:35:47.307Z,6.70
2019-01-13T17:38:13.759Z,6.70
2019-01-13T17:40:40.235Z,6.70
2019-01-13T17:43:08.599Z,6.70
2019-01-13T17:45:35.324Z,6.70
2019-01-13T17:48:02.143Z,6.60
2019-01-13T17:50:28.720Z,6.60
2019-01-13T17:52:55.269Z,6.60
2019-01-13T17:55:22.395Z,6.50
2019-01-13T17:57:48.858Z,6.50
2019-01-13T18:00:16.939Z,6.50
2019-01-13T18:02:43.428Z,6.40
2019-01-13T18:05:09.888Z,6.40
2019-01-13T18:07:36.616Z,6.40
2019-01-13T18:10:03.636Z,6.40
2019-01-13T18:12:30.392Z,6.30
2019-01-13T18:14:56.848Z,6.40
2019-01-13T18:17:23.305Z,6.50
2019-01-13T18:19:50.041Z,6.60
2019-01-13T18:22:16.500Z,6.60
2019-01-13T18:24:43.231Z,6.60
2019-01-13T18:27:09.935Z,6.50
2019-01-13T18:29:36.435Z,6.50
2019-01-13T18:32:02.879Z,6.50
2019-01-13T18:34:29.936Z,6.50
2019-01-13T18:36:56.636Z,6.60
2019-01-13T18:39:23.136Z,6.60
2019-01-13T18:41:49.924Z,6.40
2019-01-13T18:44:17.055Z,6.30
2019-01-13T18:46:43.985Z,6.20
2019-01-13T18:49:10.944Z,6.00
2019-01-13T18:51:37.648Z,5.90
2019-01-13T18:54:04.160Z,5.80
2019-01-13T18:56:30.868Z,5.60
2019-01-13T18:58:57.352Z,5.40
2019-01-13T19:01:23.803Z,5.20
2019-01-13T19:03:50.520Z,5.00
2019-01-13T19:06:16.975Z,4.90
2019-01-13T19:08:43.708Z,4.80
2019-01-13T19:11:16.491Z,4.80
2019-01-13T19:14:02.914Z,4.80
2019-01-13T19:16:32.208Z,4.80
2019-01-13T19:18:58.813Z,4.90
2019-01-13T19:21:25.696Z,4.90
2019-01-13T19:23:52.179Z,4.90
2019-01-13T19:26:18.632Z,5.00
2019-01-13T19:28:45.115Z,5.00
2019-01-13T19:31:11.573Z,5.00
2019-01-13T19:33:38.323Z,5.00
2019-01-13T19:36:05.111Z,4.90
2019-01-13T19:38:31.603Z,4.80
2019-01-13T19:40:58.190Z,4.80
2019-01-13T19:43:24.645Z,4.80
2019-01-13T19:45:51.123Z,4.70
2019-01-13T19:48:17.580Z,4.70
2019-01-13T19:50:44.320Z,4.70
2019-01-13T19:53:10.795Z,4.80
2019-01-13T19:55:37.527Z,4.90
2019-01-13T19:58:03.992Z,5.00
2019-01-13T20:00:31.592Z,5.00
2019-01-13T20:02:58.288Z,5.10
2019-01-13T20:05:25.024Z,5.00
2019-01-13T20:07:51.483Z,5.00
2019-01-13T20:10:17.968Z,5.00
2019-01-13T20:12:44.644Z,5.00
2019-01-13T20:15:11.436Z,5.00
2019-01-13T20:17:38.148Z,5.10
2019-01-13T20:20:05.084Z,5.20
2019-01-13T20:22:31.759Z,5.20
2019-01-13T20:24:58.338Z,5.20
2019-01-13T20:27:24.804Z,5.20
2019-01-13T20:29:51.291Z,5.20
2019-01-13T20:32:17.748Z,5.20
2019-01-13T20:34:44.236Z,5.10
2019-01-13T20:37:10.696Z,5.00
2019-01-13T20:39:37.406Z,4.90
2019-01-13T20:42:04.116Z,4.90
2019-01-13T20:44:30.856Z,4.90
2019-01-13T20:46:57.555Z,5.00
2019-01-13T20:49:24.040Z,5.00
2019-01-13T20:51:50.744Z,5.00
2019-01-13T20:54:17.268Z,5.00
2019-01-13T20:56:43.952Z,5.00
2019-01-13T20:59:10.651Z,5.00
2019-01-13T21:01:37.135Z,5.00
2019-01-13T21:04:03.954Z,5.00
2019-01-13T21:06:30.687Z,5.10
2019-01-13T21:08:57.132Z,5.20
2019-01-13T21:11:23.864Z,5.10
2019-01-13T21:13:50.315Z,5.10
2019-01-13T21:16:17.052Z,5.00
2019-01-13T21:18:43.513Z,5.00
2019-01-13T21:21:10.240Z,5.10
2019-01-13T21:23:36.796Z,5.10
2019-01-13T21:26:03.549Z,5.10
2019-01-13T21:28:30.028Z,5.10
2019-01-13T21:30:56.507Z,5.10
2019-01-13T21:33:23.246Z,5.10
2019-01-13T21:35:49.728Z,5.10
2019-01-13T21:38:16.680Z,5.10
2019-01-13T21:40:43.407Z,5.00
2019-01-13T21:43:09.875Z,4.90
2019-01-13T21:45:36.567Z,4.90
2019-01-13T21:48:03.467Z,4.90
2019-01-13T21:50:30.177Z,4.90
2019-01-13T21:52:56.627Z,4.90
2019-01-13T21:55:23.343Z,4.90
2019-01-13T21:57:50.028Z,4.90
2019-01-13T22:00:17.871Z,4.90
2019-01-13T22:02:44.574Z,4.90
2019-01-13T22:05:11.528Z,4.80
2019-01-13T22:07:37.975Z,4.80
2019-01-13T22:10:05.283Z,4.70
2019-01-13T22:12:31.984Z,4.70
2019-01-13T22:14:58.689Z,4.60
2019-01-13T22:17:25.417Z,4.50
2019-01-13T22:19:52.116Z,4.50
2019-01-13T22:22:18.844Z,4.50
2019-01-13T22:24:45.603Z,4.50
2019-01-13T22:27:12.332Z,4.50
2019-01-13T22:29:39.048Z,4.50
2019-01-13T22:32:05.561Z,4.50
2019-01-13T22:34:32.263Z,4.40
2019-01-13T22:36:58.748Z,4.50
2019-01-13T22:39:25.199Z,4.50
2019-01-13T22:41:51.683Z,4.50
2019-01-13T22:44:18.379Z,4.60
2019-01-13T22:46:44.867Z,4.70
2019-01-13T22:49:11.564Z,4.70
2019-01-13T22:51:38.056Z,4.70
2019-01-13T22:54:04.507Z,4.70
2019-01-13T22:56:31.230Z,4.70
2019-01-13T22:58:57.684Z,4.60
2019-01-13T23:01:32.899Z,4.50
2019-01-13T23:04:00.915Z,4.30
2019-01-13T23:06:27.392Z,4.30
2019-01-13T23:08:53.843Z,4.30
2019-01-13T23:11:20.576Z,4.20
2019-01-13T23:13:47.613Z,4.20
2019-01-13T23:16:14.102Z,4.20
2019-01-13T23:18:40.799Z,4.20
2019-01-13T23:21:07.764Z,4.20
2019-01-13T23:23:34.212Z,4.10
2019-01-13T23:26:00.976Z,4.30
2019-01-13T23:28:27.427Z,4.20
2019-01-13T23:30:54.259Z,4.20
2019-01-13T23:33:20.720Z,4.20
2019-01-13T23:35:47.415Z,4.30
2019-01-13T23:38:13.900Z,4.30
2019-01-13T23:40:40.859Z,4.30
2019-01-13T23:43:07.655Z,4.20
2019-01-13T23:45:34.107Z,4.10
2019-01-13T23:48:00.587Z,4.10
2019-01-13T23:50:27.044Z,4.10
2019-01-13T23:52:53.772Z,4.10
2019-01-13T23:55:20.472Z,4.10
2019-01-13T23:57:47.197Z,4.00
